Bolton, Connecticut
Current Conditions -  °F | °C
As of 4:53 PM on Thursday 27 Nov 2014 (Local Time) from KHFD Reporting Station
Light Snow Light Snow  
Wind Chill: 34°   Ceiling: 4500
Heat Index: 34°   Visibility: 10mi
Dew Point: 29°   Wind: 3mph
Humidity: 82%   Direction: NA
Pressure: 29.99"   Gusts: NA
Location:  41.77°N, 72.43°W
Report Text: KHFD 272153Z VRB03KT 10SM -SN FEW020 BKN045 OVC085 01/M02 A2999 RMK AO2 SNE45B53 SLP154 P0000 T00111017
Loading
Personal Weather Stations






























Interactive Weather Map New forecast layout! Learn more

10-Day Weather Forecast

Advertisements
Track Severe Weather on mobile